PMDY METAR and TAF weather

Enter ICAO airport designator
Station Type Date Time Source
PMDY METAR 2020/09/23 01:56 UTC NOAA

PMDY 230156Z AUTO 07012KT 7SM SCT022 29/24 A3011 RMK AO2 SLP197 T02890239


Station Type Date Time Source
PMDY Decoded METAR 2020/09/23 01:56 UTC NOAA

Sand Island, Henderson Field Airport, HI, United States (PMDY) 28-13N 177-22W 6M
Sep 22, 2020 - 09:56 PM EDT / 2020.09.23 0156 UTC
Wind: from the ENE (070 degrees) at 14 MPH (12 KT):0
Visibility: 7 mile(s):0
Sky conditions: partly cloudy
Temperature: 84.0 F (28.9 C)
Dew Point: 75.0 F (23.9 C)
Relative Humidity: 74%
Pressure (altimeter): 30.11 in. Hg (1019 hPa)
ob: PMDY 230156Z AUTO 07012KT 7SM SCT022 29/24 A3011 RMK AO2 SLP197 T02890239
cycle: 2

Station Type Date Time Source
PMDY TAF 2020/09/22 18:39 UTC NOAA

TAF PMDY 221736Z 2218/2318 07012KT P6SM FEW040
FM230600 09009KT P6SM VCSH FEW025 SCT040

Example: see airport list